San Jose, Costa Rica

2:39 PM CST on August 04, 2015 (GMT -0600)
Juan Santamaria International | | Change Station
CLOSE
Current Station
Airport
Location: San Jose,
Elevation: 3018 ft
Nearby Weather Stations

Elev 3018 ft 9.99 °N, 84.21 °W | Updated 2 hours ago

Mostly Cloudy
Mostly Cloudy
82 °F
Feels Like 84 °F
N
14
Wind Variable Wind from East
Gusts 25 mph

Today
High -- | Low -- °F
--% Chance of Precip.
Yesterday
High -- | Low -- °F
Precip. -- in
5:26 AM 5:58 PM
Waning Gibbous, 74% visible
Pressure 29.96 in
Visibility 6.2 miles
Clouds Mostly Cloudy 3500 ft
Heat Index 84 °F
Dew Point 64 °F
Humidity 54%
Rainfall 0.00 in
Snow Depth Not available.
UV 10 out of 12
Pollen Not available.
Air Quality Not available.
Flu Activity Not available.
METAR MROC 041800Z 09012G22KT 9999 BKN035 28/18 A2996 NOSIG

More Conditions Fewer Conditions

Pressure 29.96 in
Visibility 6.2 miles
Clouds Mostly Cloudy 3500 ft
Heat Index 84 °F
Dew Point 64 °F
Humidity 54%
Rainfall 0.00 in
Snow Depth Not available.
UV 10 out of 12
Pollen Not available.
Air Quality Not available.
Flu Activity Not available.
METAR MROC 041800Z 09012G22KT 9999 BKN035 28/18 A2996 NOSIG

More Conditions Fewer Conditions

10-Day Weather Forecast

×

Almanac

Astronomy

Aug. 04, 2015 Rise Set
Actual Time
Civil Twilight
Nautical Twilight
Astronomical Twilight
Moon
Length of Visible Light
Length of Day
Tomorrow will be .
, % of the Moon is Illuminated

Today's Extremes

Country Highs Country Lows

Community

WunderPhotos

Upload Photos

1,843,971 photos uploaded!

WunderBlogs® & News

Nearby

Air Quality

  Air Quality AQ Index Pollutant
Not available.

Snow Depth

Station Depth Elevation

Earthquake Activity

City Distance Mag. Time & Date
Minimum magnitude displayed is 2.5.

Coastal Water Temperatures

Place Temperature

Stations

Nearby Weather Stations

Station Location Temp. Windchill Dew Point Humidity Wind Precip. Elev Updated Type